Lexington, VA

1:45 AM EST on February 10, 2016 (GMT -0500)
Anchorage House | | Change Station
CLOSE
Current Station
Personal Weather Station
Location: Lexington, VA
Elevation: 1158 ft
Nearby Weather Stations

Elev 1158 ft 37.76 °N, 79.47 °W | Updated 10 minutes ago

Overcast
Overcast
24.1 °F
Feels Like 20 °F
N
3.2
Wind Variable Wind from SSW

Today
High -- | Low -- °F
--% Chance of Precip.
Yesterday
High -- | Low -- °F
Precip. -- in
Pressure 29.78 in
Visibility 10.0 miles
Clouds Clear
Windchill 20 °F
Dew Point 13 °F
Humidity 62%
Rainfall 0.00 in
Snow Depth Not available.
7:13 AM 5:51 PM
Waxing Crescent, 4% visible
METAR KLYH 100554Z AUTO VRB05KT 10SM CLR M04/M12 A2976 RMK AO2 SLP082 T10441117 11017 21044 50003
Pressure 29.78 in
Visibility 10.0 miles
Clouds Clear
Windchill 20 °F
Dew Point 13 °F
Humidity 62%
Rainfall 0.00 in
Snow Depth Not available.
7:13 AM 5:51 PM
Waxing Crescent, 4% visible
METAR KLYH 100554Z AUTO VRB05KT 10SM CLR M04/M12 A2976 RMK AO2 SLP082 T10441117 11017 21044 50003

10-Day Weather Forecast

Almanac

Astronomy

Feb. 10, 2016 Rise Set
Actual Time
Civil Twilight
Nautical Twilight
Astronomical Twilight
Moon
Length of Visible Light
Length of Day
Tomorrow will be .
, % of the Moon is Illuminated

Today's Extremes

State Highs State Lows

Community

WunderPhotos

Upload Photos

1,891,826 photos uploaded!

WunderBlog® & News

Nearby

Air Quality

  Air Quality AQ Index Pollutant
Not available.

Snow Depth

Station Depth Elevation

Earthquake Activity

City Distance Mag. Time & Date
Minimum magnitude displayed is 2.5.

Coastal Water Temperatures

Place Temperature

Stations

Nearby Weather Stations

Station Location Temp. Windchill Dew Point Humidity Wind Precip. Elev Updated Type
                   

Watches & Warnings

There are currently no watches in effect.